createdAt,value
2022-10-15T00:00:53.331Z,100178.31
2022-10-15T00:03:20.829Z,100177.34
2022-10-15T00:05:48.297Z,100177.44
2022-10-15T00:08:15.670Z,100168.66
2022-10-15T00:10:43.014Z,100164.22
2022-10-15T00:13:10.622Z,100162.31
2022-10-15T00:15:38.220Z,100161.34
2022-10-15T00:18:05.702Z,100161.56
2022-10-15T00:20:33.181Z,100156.41
2022-10-15T00:23:00.783Z,100146.44
2022-10-15T00:25:28.406Z,100138.50
2022-10-15T00:27:55.877Z,100143.78
2022-10-15T00:30:23.350Z,100140.31
2022-10-15T00:32:50.837Z,100139.25
2022-10-15T00:35:18.465Z,100136.59
2022-10-15T00:37:46.276Z,100135.75
2022-10-15T00:40:16.080Z,100135.03
2022-10-15T00:42:43.539Z,100126.25
2022-10-15T00:45:16.171Z,100129.09
2022-10-15T00:47:49.043Z,100129.22
2022-10-15T00:50:28.903Z,100135.47
2022-10-15T00:53:03.823Z,100131.88
2022-10-15T00:55:33.445Z,100129.09
2022-10-15T00:58:03.626Z,100129.22
2022-10-15T01:00:31.777Z,100117.69
2022-10-15T01:02:59.372Z,100116.84
2022-10-15T01:05:27.456Z,100107.94
2022-10-15T01:07:54.817Z,100107.75
2022-10-15T01:10:22.417Z,100102.56
2022-10-15T01:13:12.345Z,100100.88
2022-10-15T01:16:23.383Z,100095.47
2022-10-15T01:19:04.905Z,100092.97
2022-10-15T01:21:50.524Z,100084.16
2022-10-15T01:24:39.376Z,100083.31
2022-10-15T01:27:29.036Z,100082.63
2022-10-15T01:30:21.354Z,100077.69
2022-10-15T01:32:54.952Z,100071.31
2022-10-15T01:35:26.636Z,100083.31
2022-10-15T01:38:21.119Z,100077.34
2022-10-15T01:41:01.200Z,100072.28
2022-10-15T01:44:06.595Z,100068.66
2022-10-15T01:46:55.680Z,100071.44
2022-10-15T01:49:26.436Z,100060.03
2022-10-15T01:51:54.720Z,100063.50
2022-10-15T01:54:24.604Z,100060.72
2022-10-15T01:56:52.803Z,100062.53
2022-10-15T01:59:23.284Z,100057.16
2022-10-15T02:01:51.018Z,100051.97
2022-10-15T02:04:23.770Z,100057.25
2022-10-15T02:07:14.421Z,100048.25
2022-10-15T02:10:05.057Z,100050.91
2022-10-15T02:12:42.495Z,100049.47
2022-10-15T02:15:36.631Z,100043.22
2022-10-15T02:18:19.586Z,100039.34
2022-10-15T02:21:48.174Z,100037.69
2022-10-15T02:24:24.640Z,100034.06
2022-10-15T02:26:54.748Z,100027.34
2022-10-15T02:29:24.155Z,100035.28
2022-10-15T02:31:52.959Z,100033.47
2022-10-15T02:34:22.230Z,100033.72
2022-10-15T02:36:50.192Z,100030.97
2022-10-15T02:39:22.487Z,100030.72
2022-10-15T02:41:50.689Z,100030.81
2022-10-15T02:44:18.399Z,100028.09
2022-10-15T02:46:46.004Z,100030.59
2022-10-15T02:49:13.479Z,100021.84
2022-10-15T02:51:41.205Z,100026.38
2022-10-15T02:54:08.684Z,100016.78
2022-10-15T02:56:36.293Z,100018.44
2022-10-15T02:59:06.050Z,100015.72
2022-10-15T03:01:34.491Z,100018.94
2022-10-15T03:04:02.448Z,100017.16
2022-10-15T03:06:29.814Z,100020.63
2022-10-15T03:08:57.300Z,100019.88
2022-10-15T03:11:24.652Z,100015.44
2022-10-15T03:13:52.257Z,100012.81
2022-10-15T03:16:19.744Z,100014.38
2022-10-15T03:18:47.346Z,100014.38
2022-10-15T03:21:14.702Z,100016.06
2022-10-15T03:23:42.666Z,100014.28
2022-10-15T03:26:10.040Z,100014.03
2022-10-15T03:28:37.554Z,100007.91
2022-10-15T03:31:05.122Z,100000.22
2022-10-15T03:33:32.708Z,100000.31
2022-10-15T03:36:00.554Z,99994.19
2022-10-15T03:38:28.277Z,99994.94
2022-10-15T03:40:55.654Z,99987.25
2022-10-15T03:43:26.475Z,99981.22
2022-10-15T03:45:53.960Z,99988.91
2022-10-15T03:48:22.517Z,99993.47
2022-10-15T03:50:50.019Z,99998.03
2022-10-15T03:53:17.599Z,99996.25
2022-10-15T03:55:45.085Z,99994.44
2022-10-15T03:58:12.595Z,99993.59
2022-10-15T04:00:44.472Z,99992.63
2022-10-15T04:03:12.104Z,99995.41
2022-10-15T04:05:39.692Z,100000.56
2022-10-15T04:08:07.065Z,99998.50
2022-10-15T04:10:34.776Z,99991.44
2022-10-15T04:13:02.143Z,99993.13
2022-10-15T04:15:29.502Z,99988.69
2022-10-15T04:17:56.887Z,99998.41
2022-10-15T04:20:24.360Z,100002.22
2022-10-15T04:22:51.955Z,99997.31
2022-10-15T04:25:19.320Z,99994.56
2022-10-15T04:27:47.157Z,100000.69
2022-10-15T04:30:14.755Z,100000.56
2022-10-15T04:32:42.246Z,100004.88
2022-10-15T04:35:10.088Z,100000.31
2022-10-15T04:37:37.554Z,100001.88
2022-10-15T04:40:05.872Z,100007.19
2022-10-15T04:42:33.362Z,100007.19
2022-10-15T04:45:00.963Z,100012.38
2022-10-15T04:47:28.316Z,99997.56
2022-10-15T04:49:55.679Z,100015.00
2022-10-15T04:52:23.521Z,100010.56
2022-10-15T04:54:51.009Z,100007.91
2022-10-15T04:57:18.483Z,100007.19
2022-10-15T04:59:46.207Z,100007.91
2022-10-15T05:02:13.590Z,100008.75
2022-10-15T05:04:41.178Z,100012.38
2022-10-15T05:07:08.532Z,100013.91
2022-10-15T05:09:37.283Z,100016.53
2022-10-15T05:12:04.946Z,100006.72
2022-10-15T05:14:32.412Z,100004.31
2022-10-15T05:17:00.351Z,100013.19
2022-10-15T05:19:27.758Z,100008.38
2022-10-15T05:21:55.232Z,100003.09
2022-10-15T05:24:22.705Z,100008.25
2022-10-15T05:26:50.182Z,100004.53
2022-10-15T05:29:17.665Z,100007.50
2022-10-15T05:31:45.029Z,100005.38
2022-10-15T05:34:12.883Z,100012.09
2022-10-15T05:36:40.477Z,100013.75
2022-10-15T05:39:10.720Z,100022.44
2022-10-15T05:41:38.200Z,100017.00
2022-10-15T05:44:05.675Z,100023.16
2022-10-15T05:46:33.276Z,100021.13
2022-10-15T05:49:00.890Z,100024.09
2022-10-15T05:51:28.836Z,100031.09
2022-10-15T05:53:57.041Z,100029.53
2022-10-15T05:56:25.001Z,100031.94
2022-10-15T05:58:52.607Z,100031.94
2022-10-15T06:01:20.327Z,100032.03
2022-10-15T06:03:48.051Z,100034.56
2022-10-15T06:06:21.071Z,100042.28
2022-10-15T06:08:50.221Z,100048.25
2022-10-15T06:11:17.937Z,100049.72
2022-10-15T06:13:46.374Z,100049.59
2022-10-15T06:16:18.020Z,100054.38
2022-10-15T06:18:48.536Z,100054.66
2022-10-15T06:21:16.016Z,100055.50
2022-10-15T06:23:43.378Z,100055.25
2022-10-15T06:26:11.101Z,100060.53
2022-10-15T06:28:39.512Z,100065.84
2022-10-15T06:31:07.515Z,100060.28
2022-10-15T06:33:36.129Z,100059.34
2022-10-15T06:36:09.069Z,100053.09
2022-10-15T06:38:37.395Z,100063.16
2022-10-15T06:41:05.472Z,100062.19
2022-10-15T06:43:35.184Z,100073.50
2022-10-15T06:46:04.874Z,100069.06
2022-10-15T06:48:32.959Z,100072.91
2022-10-15T06:51:01.405Z,100068.44
2022-10-15T06:53:29.971Z,100069.41
2022-10-15T06:55:58.652Z,100077.13
2022-10-15T06:58:26.844Z,100076.03
2022-10-15T07:00:54.209Z,100075.03
2022-10-15T07:03:21.848Z,100088.16
2022-10-15T07:05:49.288Z,100087.44
2022-10-15T07:08:19.231Z,100094.41
2022-10-15T07:10:47.425Z,100103.06
2022-10-15T07:13:14.728Z,100101.38
2022-10-15T07:15:42.336Z,100107.25
2022-10-15T07:18:10.057Z,100112.06
2022-10-15T07:20:37.547Z,100116.03
2022-10-15T07:23:05.019Z,100122.88
2022-10-15T07:25:32.977Z,100126.22
2022-10-15T07:28:00.704Z,100115.41
2022-10-15T07:30:28.598Z,100110.84
2022-10-15T07:32:57.352Z,100106.50
2022-10-15T07:35:25.784Z,100100.03
2022-10-15T07:37:53.510Z,100105.91
2022-10-15T07:40:21.116Z,100095.06
2022-10-15T07:42:55.915Z,100102.06
2022-10-15T07:45:24.235Z,100107.91
2022-10-15T07:47:52.192Z,100106.59
2022-10-15T07:50:20.039Z,100103.06
2022-10-15T07:52:47.429Z,100103.88
2022-10-15T07:55:14.878Z,100102.53
2022-10-15T07:57:42.364Z,100098.28
2022-10-15T08:00:10.364Z,100092.38
2022-10-15T08:02:37.937Z,100098.13
2022-10-15T08:05:05.644Z,100100.38
2022-10-15T08:07:33.372Z,100097.38
2022-10-15T08:10:01.095Z,100103.13
2022-10-15T08:12:28.577Z,100103.44
2022-10-15T08:14:56.053Z,100104.63
2022-10-15T08:17:23.417Z,100106.03
2022-10-15T08:19:51.031Z,100109.72
2022-10-15T08:22:18.658Z,100115.22
2022-10-15T08:24:46.221Z,100114.53
2022-10-15T08:27:14.342Z,100123.91
2022-10-15T08:29:42.029Z,100119.78
2022-10-15T08:32:09.871Z,100119.38
2022-10-15T08:34:37.348Z,100120.50
2022-10-15T08:37:05.228Z,100127.81
2022-10-15T08:39:32.682Z,100128.00
2022-10-15T08:42:06.153Z,100130.00
2022-10-15T08:44:46.234Z,100133.78
2022-10-15T08:47:47.796Z,100127.63
2022-10-15T08:50:41.437Z,100131.69
2022-10-15T08:53:14.926Z,100121.25
2022-10-15T08:55:45.064Z,100125.91
2022-10-15T08:58:44.686Z,100129.84
2022-10-15T09:01:25.126Z,100136.81
2022-10-15T09:04:03.762Z,100137.81
2022-10-15T09:06:35.210Z,100135.59
2022-10-15T09:09:31.029Z,100143.00
2022-10-15T09:12:38.088Z,100150.97
2022-10-15T09:15:12.768Z,100150.13
2022-10-15T09:17:52.145Z,100143.00
2022-10-15T09:20:39.918Z,100148.44
2022-10-15T09:23:18.302Z,100141.16
2022-10-15T09:25:50.342Z,100147.19
2022-10-15T09:28:20.643Z,100142.16
2022-10-15T09:30:51.660Z,100140.50
2022-10-15T09:33:42.070Z,100141.50
2022-10-15T09:36:15.461Z,100142.66
2022-10-15T09:38:45.794Z,100146.00
2022-10-15T09:41:32.839Z,100144.59
2022-10-15T09:44:03.632Z,100144.16
2022-10-15T09:46:33.450Z,100143.34
2022-10-15T09:49:00.798Z,100146.56
2022-10-15T09:52:07.756Z,100145.03
2022-10-15T09:55:11.004Z,100148.69
2022-10-15T09:57:39.819Z,100137.03
2022-10-15T10:00:13.676Z,100147.63
2022-10-15T10:02:41.795Z,100147.59
2022-10-15T10:05:39.333Z,100156.00
2022-10-15T10:08:31.898Z,100147.97
2022-10-15T10:11:02.489Z,100155.78
2022-10-15T10:13:40.123Z,100154.44
2022-10-15T10:16:10.679Z,100162.31
2022-10-15T10:18:38.740Z,100161.03
2022-10-15T10:21:31.180Z,100163.84
2022-10-15T10:24:19.421Z,100171.81
2022-10-15T10:26:47.751Z,100168.75
2022-10-15T10:29:33.574Z,100164.84
2022-10-15T10:32:27.460Z,100166.06
2022-10-15T10:34:55.061Z,100166.47
2022-10-15T10:37:23.188Z,100165.91
2022-10-15T10:39:59.029Z,100157.53
2022-10-15T10:42:34.677Z,100166.88
2022-10-15T10:45:18.864Z,100157.53
2022-10-15T10:47:46.676Z,100162.41
2022-10-15T10:50:32.878Z,100161.13
2022-10-15T10:53:37.086Z,100158.22
2022-10-15T10:56:05.404Z,100165.06
2022-10-15T10:58:34.247Z,100161.00
2022-10-15T11:01:01.731Z,100166.75
2022-10-15T11:03:37.694Z,100163.25
2022-10-15T11:06:08.040Z,100168.56
2022-10-15T11:08:47.531Z,100163.28
2022-10-15T11:11:24.249Z,100161.19
2022-10-15T11:14:17.650Z,100157.97
2022-10-15T11:16:58.338Z,100159.31
2022-10-15T11:22:28.947Z,100168.53
2022-10-15T11:25:28.595Z,100166.88
2022-10-15T11:28:08.428Z,100156.47
2022-10-15T11:31:06.506Z,100162.72
2022-10-15T11:34:15.384Z,100162.97
2022-10-15T11:37:07.585Z,100143.31
2022-10-15T11:39:50.302Z,100159.00
2022-10-15T11:42:29.670Z,100156.22
2022-10-15T11:45:15.635Z,100154.69
2022-10-15T11:48:01.433Z,100148.09
2022-10-15T11:50:47.710Z,100151.13
2022-10-15T11:53:59.802Z,100148.94
2022-10-15T11:56:36.346Z,100150.34
2022-10-15T11:59:34.148Z,100141.16
2022-10-15T12:02:06.176Z,100150.66
2022-10-15T12:04:41.319Z,100137.94
2022-10-15T12:07:11.820Z,100146.44
2022-10-15T12:09:41.939Z,100149.06
2022-10-15T12:12:36.051Z,100149.22
2022-10-15T12:15:22.366Z,100149.00
2022-10-15T12:18:22.252Z,100150.59
2022-10-15T12:20:49.858Z,100148.31
2022-10-15T12:23:39.059Z,100145.41
2022-10-15T12:26:24.799Z,100149.09
2022-10-15T12:28:52.815Z,100148.28
2022-10-15T12:31:20.940Z,100144.59
2022-10-15T12:33:52.501Z,100156.16
2022-10-15T12:36:19.748Z,100150.06
2022-10-15T12:39:00.669Z,100152.19
2022-10-15T12:41:40.867Z,100159.66
2022-10-15T12:44:34.516Z,100154.03
2022-10-15T12:47:02.105Z,100153.25
2022-10-15T12:49:32.593Z,100160.53
2022-10-15T12:52:02.018Z,100155.75
2022-10-15T12:54:35.233Z,100145.56
2022-10-15T12:57:12.441Z,100155.97
2022-10-15T12:59:46.161Z,100149.19
2022-10-15T13:02:39.682Z,100152.53
2022-10-15T13:05:12.587Z,100147.72
2022-10-15T13:07:41.124Z,100154.38
2022-10-15T13:10:29.129Z,100156.13
2022-10-15T13:13:04.292Z,100148.06
2022-10-15T13:15:32.972Z,100145.72
2022-10-15T13:18:06.814Z,100148.97
2022-10-15T13:20:37.285Z,100142.28
2022-10-15T13:23:29.395Z,100129.28
2022-10-15T13:26:13.293Z,100133.44
2022-10-15T13:28:42.185Z,100132.97
2022-10-15T13:31:20.582Z,100139.84
2022-10-15T13:33:52.068Z,100137.56
2022-10-15T13:36:26.152Z,100139.84
2022-10-15T13:39:00.415Z,100135.34
2022-10-15T13:41:31.904Z,100142.81
2022-10-15T13:44:01.084Z,100134.81
2022-10-15T13:46:34.311Z,100132.06
2022-10-15T13:49:10.794Z,100133.69
2022-10-15T13:51:40.797Z,100140.97
2022-10-15T13:54:11.272Z,100142.34
2022-10-15T13:56:47.790Z,100130.66
2022-10-15T13:59:18.360Z,100135.13
2022-10-15T14:02:00.978Z,100140.69
2022-10-15T14:04:29.695Z,100143.91
2022-10-15T14:07:03.144Z,100144.56
2022-10-15T14:09:36.253Z,100141.22
2022-10-15T14:12:07.925Z,100141.44
2022-10-15T14:14:47.049Z,100135.94
2022-10-15T14:17:17.682Z,100140.13
2022-10-15T14:20:22.173Z,100137.72
2022-10-15T14:22:49.328Z,100139.63
2022-10-15T14:25:22.475Z,100140.56
2022-10-15T14:27:50.052Z,100143.78
2022-10-15T14:30:35.892Z,100141.22
2022-10-15T14:33:03.625Z,100141.44
2022-10-15T14:35:34.338Z,100142.16
2022-10-15T14:38:14.435Z,100146.22
2022-10-15T14:40:42.025Z,100141.72
2022-10-15T14:43:17.451Z,100149.34
2022-10-15T14:45:51.032Z,100159.03
2022-10-15T14:48:24.986Z,100152.09
2022-10-15T14:50:53.307Z,100154.16
2022-10-15T14:53:24.876Z,100151.78
2022-10-15T14:55:56.558Z,100150.78
2022-10-15T14:58:25.354Z,100151.94
2022-10-15T15:01:08.921Z,100154.94
2022-10-15T15:03:42.037Z,100148.75
2022-10-15T15:06:10.022Z,100150.06
2022-10-15T15:08:37.957Z,100146.69
2022-10-15T15:11:07.846Z,100162.38
2022-10-15T15:13:41.204Z,100156.13
2022-10-15T15:16:16.367Z,100161.63
2022-10-15T15:18:46.396Z,100159.88
2022-10-15T15:21:17.205Z,100162.16
2022-10-15T15:23:44.842Z,100164.81
2022-10-15T15:26:12.541Z,100176.81
2022-10-15T15:28:40.049Z,100165.50
2022-10-15T15:31:12.540Z,100167.47
2022-10-15T15:33:41.460Z,100162.00
2022-10-15T15:36:20.705Z,100155.59
2022-10-15T15:38:51.342Z,100162.06
2022-10-15T15:41:22.913Z,100160.69
2022-10-15T15:43:50.965Z,100162.25
2022-10-15T15:46:18.689Z,100165.09
2022-10-15T15:48:46.408Z,100161.19
2022-10-15T15:51:26.835Z,100166.91
2022-10-15T15:53:55.279Z,100168.03
2022-10-15T15:56:22.997Z,100163.31
2022-10-15T15:58:51.189Z,100161.00
2022-10-15T16:01:19.214Z,100160.84
2022-10-15T16:03:47.121Z,100173.50
2022-10-15T16:06:14.596Z,100175.44
2022-10-15T16:08:42.090Z,100167.47
2022-10-15T16:11:09.441Z,100181.75
2022-10-15T16:13:36.801Z,100176.88
2022-10-15T16:16:05.249Z,100183.22
2022-10-15T16:18:32.843Z,100180.00
2022-10-15T16:21:00.206Z,100190.81
2022-10-15T16:23:27.575Z,100188.59
2022-10-15T16:25:57.578Z,100193.34
2022-10-15T16:28:25.229Z,100184.25
2022-10-15T16:30:52.651Z,100189.91
2022-10-15T16:33:20.147Z,100181.47
2022-10-15T16:35:53.853Z,100191.72
2022-10-15T16:38:21.346Z,100193.28
2022-10-15T16:40:48.825Z,100191.03
2022-10-15T16:43:16.178Z,100186.03
2022-10-15T16:45:43.546Z,100195.09
2022-10-15T16:48:11.031Z,100194.28
2022-10-15T16:50:38.632Z,100198.75
2022-10-15T16:53:06.120Z,100206.47
2022-10-15T16:55:34.071Z,100214.16
2022-10-15T16:58:01.675Z,100207.25
2022-10-15T17:00:29.244Z,100212.88
2022-10-15T17:02:56.755Z,100218.44
2022-10-15T17:05:24.127Z,100226.56
2022-10-15T17:07:51.597Z,100225.00
2022-10-15T17:10:25.602Z,100223.63
2022-10-15T17:12:53.526Z,100233.69
2022-10-15T17:15:21.002Z,100221.78
2022-10-15T17:17:48.966Z,100230.06
2022-10-15T17:20:16.446Z,100239.97
2022-10-15T17:22:43.929Z,100238.44
2022-10-15T17:25:11.407Z,100241.34
2022-10-15T17:27:38.912Z,100238.28
2022-10-15T17:30:06.976Z,100232.53
2022-10-15T17:32:34.694Z,100243.56
2022-10-15T17:35:04.134Z,100249.97
2022-10-15T17:37:32.068Z,100256.53
2022-10-15T17:39:59.969Z,100256.78
2022-10-15T17:42:27.782Z,100256.38
2022-10-15T17:44:55.343Z,100248.78
2022-10-15T17:47:23.064Z,100242.81
2022-10-15T17:49:50.790Z,100251.16
2022-10-15T17:52:18.510Z,100252.25
2022-10-15T17:54:46.109Z,100249.91
2022-10-15T17:57:13.590Z,100240.22
2022-10-15T17:59:41.076Z,100238.81
2022-10-15T18:02:10.318Z,100244.41
2022-10-15T18:04:39.157Z,100235.88
2022-10-15T18:07:06.878Z,100244.81
2022-10-15T18:09:34.243Z,100240.59
2022-10-15T18:12:02.215Z,100242.13
2022-10-15T18:14:30.175Z,100251.03
2022-10-15T18:16:58.365Z,100252.72
2022-10-15T18:19:26.999Z,100256.59
2022-10-15T18:21:55.714Z,100259.22
2022-10-15T18:24:26.339Z,100248.88
2022-10-15T18:26:54.192Z,100255.03
2022-10-15T18:29:22.493Z,100259.50
2022-10-15T18:31:54.814Z,100258.78
2022-10-15T18:34:24.652Z,100261.69
2022-10-15T18:36:52.136Z,100260.03
2022-10-15T18:39:19.617Z,100254.00
2022-10-15T18:41:46.986Z,100266.66
2022-10-15T18:44:16.787Z,100262.47
2022-10-15T18:46:45.669Z,100265.38
2022-10-15T18:49:15.315Z,100267.06
2022-10-15T18:51:46.034Z,100268.19
2022-10-15T18:54:14.122Z,100270.25
2022-10-15T18:56:41.720Z,100272.06
2022-10-15T18:59:09.311Z,100268.69
2022-10-15T19:01:39.261Z,100273.16
2022-10-15T19:04:09.314Z,100271.47
2022-10-15T19:06:39.921Z,100268.81
2022-10-15T19:09:12.600Z,100268.13
2022-10-15T19:11:41.981Z,100264.75
2022-10-15T19:14:09.582Z,100259.56
2022-10-15T19:16:37.519Z,100260.81
2022-10-15T19:19:05.726Z,100261.88
2022-10-15T19:21:33.204Z,100255.19
2022-10-15T19:24:00.687Z,100261.06
2022-10-15T19:26:28.651Z,100268.16
2022-10-15T19:28:57.394Z,100266.50
2022-10-15T19:31:29.135Z,100274.31
2022-10-15T19:34:00.337Z,100265.50
2022-10-15T19:36:34.292Z,100274.19
2022-10-15T19:39:04.058Z,100276.72
2022-10-15T19:41:31.539Z,100276.72
2022-10-15T19:43:59.142Z,100273.22
2022-10-15T19:46:26.986Z,100277.56
2022-10-15T19:48:54.341Z,100270.56
2022-10-15T19:51:22.302Z,100277.56
2022-10-15T19:53:54.587Z,100273.69
2022-10-15T19:56:22.308Z,100279.13
2022-10-15T19:58:55.910Z,100279.22
2022-10-15T20:01:23.329Z,100271.28
2022-10-15T20:03:51.111Z,100271.41
2022-10-15T20:06:19.195Z,100277.56
2022-10-15T20:08:47.159Z,100277.41
2022-10-15T20:11:14.633Z,100285.25
2022-10-15T20:13:41.997Z,100292.25
2022-10-15T20:16:14.277Z,100300.34
2022-10-15T20:18:42.614Z,100303.81
2022-10-15T20:21:11.893Z,100305.50
2022-10-15T20:23:40.568Z,100313.47
2022-10-15T20:26:10.808Z,100316.94
2022-10-15T20:28:40.275Z,100308.00
2022-10-15T20:31:12.852Z,100298.53
2022-10-15T20:33:41.170Z,100308.28
2022-10-15T20:36:23.447Z,100305.50
2022-10-15T20:38:52.604Z,100308.69
2022-10-15T20:41:20.302Z,100318.56
2022-10-15T20:43:55.586Z,100311.81
2022-10-15T20:46:27.500Z,100307.94
2022-10-15T20:48:56.277Z,100320.59
2022-10-15T20:51:27.621Z,100324.13
2022-10-15T20:53:58.583Z,100325.59
2022-10-15T20:56:26.074Z,100334.53
2022-10-15T20:58:53.441Z,100331.88
2022-10-15T21:01:21.066Z,100331.88
2022-10-15T21:03:48.753Z,100328.38
2022-10-15T21:06:16.280Z,100332.13
2022-10-15T21:08:43.718Z,100341.50
2022-10-15T21:11:11.194Z,100344.66
2022-10-15T21:13:38.680Z,100342.25
2022-10-15T21:16:07.239Z,100347.19
2022-10-15T21:18:36.165Z,100350.59
2022-10-15T21:21:06.062Z,100347.94
2022-10-15T21:23:33.765Z,100345.41
2022-10-15T21:26:07.964Z,100354.06
2022-10-15T21:28:36.381Z,100348.06
2022-10-15T21:31:15.774Z,100350.81
2022-10-15T21:33:43.968Z,100343.00
2022-10-15T21:36:22.611Z,100339.63
2022-10-15T21:39:07.009Z,100352.88
2022-10-15T21:41:37.269Z,100351.19
2022-10-15T21:44:06.546Z,100348.44
2022-10-15T21:46:34.618Z,100348.44
2022-10-15T21:49:03.535Z,100348.44
2022-10-15T21:51:32.582Z,100347.84
2022-10-15T21:54:01.072Z,100342.91
2022-10-15T21:56:28.760Z,100354.47
2022-10-15T21:58:56.598Z,100363.91
2022-10-15T22:01:26.431Z,100358.34
2022-10-15T22:04:01.650Z,100358.22
2022-10-15T22:06:29.830Z,100365.94
2022-10-15T22:08:57.332Z,100376.63
2022-10-15T22:11:30.079Z,100366.03
2022-10-15T22:14:00.093Z,100378.31
2022-10-15T22:16:28.534Z,100370.38
2022-10-15T22:18:57.080Z,100373.97
2022-10-15T22:21:25.888Z,100376.63
2022-10-15T22:23:54.952Z,100376.78
2022-10-15T22:26:25.645Z,100376.78
2022-10-15T22:28:54.898Z,100374.13
2022-10-15T22:31:23.011Z,100376.78
2022-10-15T22:33:50.644Z,100375.81
2022-10-15T22:36:26.783Z,100368.59
2022-10-15T22:39:01.740Z,100365.81
2022-10-15T22:41:31.173Z,100360.38
2022-10-15T22:43:59.136Z,100358.69
2022-10-15T22:46:27.108Z,100358.44
2022-10-15T22:48:55.068Z,100367.63
2022-10-15T22:51:22.560Z,100372.06
2022-10-15T22:53:50.027Z,100369.41
2022-10-15T22:56:18.834Z,100373.00
2022-10-15T22:58:46.671Z,100375.66
2022-10-15T23:01:21.888Z,100379.19
2022-10-15T23:03:51.842Z,100371.34
2022-10-15T23:06:20.389Z,100380.25
2022-10-15T23:08:47.888Z,100377.75
2022-10-15T23:11:20.509Z,100375.94
2022-10-15T23:13:51.838Z,100380.41
2022-10-15T23:16:29.402Z,100380.41
2022-10-15T23:19:02.398Z,100387.59
2022-10-15T23:21:36.722Z,100392.31
2022-10-15T23:24:05.168Z,100394.00
2022-10-15T23:26:32.781Z,100393.19
2022-10-15T23:29:01.383Z,100402.81
2022-10-15T23:31:31.563Z,100401.81
2022-10-15T23:34:00.254Z,100398.47
2022-10-15T23:36:29.411Z,100409.91
2022-10-15T23:39:02.420Z,100402.91
2022-10-15T23:41:30.398Z,100403.78
2022-10-15T23:43:58.338Z,100409.16
2022-10-15T23:46:26.069Z,100408.09
2022-10-15T23:48:53.778Z,100413.41
2022-10-15T23:51:26.535Z,100410.75
2022-10-15T23:53:56.073Z,100408.94
2022-10-15T23:56:23.671Z,100405.19
2022-10-15T23:58:52.706Z,100406.63
